createdAt,value
2022-11-07T00:00:50.158Z,24.1
2022-11-07T00:01:52.446Z,23.9
2022-11-07T00:02:56.766Z,23.8
2022-11-07T00:04:01.782Z,24.9
2022-11-07T00:05:05.842Z,24.2
2022-11-07T00:06:09.919Z,23.8
2022-11-07T00:07:14.971Z,23.3
2022-11-07T00:08:19.103Z,23
2022-11-07T00:09:23.686Z,24.2
2022-11-07T00:10:28.258Z,23.4
2022-11-07T00:11:32.362Z,24.4
2022-11-07T00:12:36.910Z,24.2
2022-11-07T00:13:41.434Z,23.9
2022-11-07T00:14:45.477Z,24.6
2022-11-07T00:15:49.757Z,23.7
2022-11-07T00:16:59.592Z,24.6
2022-11-07T00:18:04.097Z,24.7
2022-11-07T00:19:08.817Z,23.6
2022-11-07T00:20:13.134Z,24.2
2022-11-07T00:21:17.677Z,24.1
2022-11-07T00:22:21.832Z,24.1
2022-11-07T00:23:25.872Z,24.3
2022-11-07T00:24:30.428Z,24.6
2022-11-07T00:25:34.452Z,23.2
2022-11-07T00:26:38.730Z,23.8
2022-11-07T00:27:43.414Z,24.9
2022-11-07T00:28:48.072Z,24.2
2022-11-07T00:29:52.387Z,22.4
2022-11-07T00:30:56.542Z,23.1
2022-11-07T00:32:00.773Z,23.2
2022-11-07T00:33:05.136Z,23.3
2022-11-07T00:34:09.168Z,22.8
2022-11-07T00:35:14.073Z,23.2
2022-11-07T00:36:18.432Z,22.5
2022-11-07T00:37:22.977Z,23.4
2022-11-07T00:38:27.560Z,23.4
2022-11-07T00:39:32.045Z,23
2022-11-07T00:40:36.248Z,23
2022-11-07T00:41:40.283Z,23.5
2022-11-07T00:42:44.931Z,23.4
2022-11-07T00:43:49.720Z,22.2
2022-11-07T00:44:54.144Z,22.8
2022-11-07T00:45:58.676Z,22.3
2022-11-07T00:47:02.781Z,23.9
2022-11-07T00:48:07.376Z,21.9
2022-11-07T00:49:11.888Z,23.6
2022-11-07T00:50:16.600Z,22.8
2022-11-07T00:51:21.135Z,23.4
2022-11-07T00:52:25.821Z,22.7
2022-11-07T00:53:30.220Z,23.5
2022-11-07T00:54:34.416Z,22.7
2022-11-07T00:55:38.977Z,23.7
2022-11-07T00:56:43.402Z,22.9
2022-11-07T00:57:47.536Z,23.2
2022-11-07T00:58:51.600Z,23.2
2022-11-07T00:59:58.768Z,23
2022-11-07T01:01:02.960Z,22.5
2022-11-07T01:02:10.151Z,23
2022-11-07T01:03:14.457Z,23.1
2022-11-07T01:04:23.671Z,22.1
2022-11-07T01:05:32.943Z,23.2
2022-11-07T01:06:37.036Z,23.1
2022-11-07T01:07:41.650Z,22.7
2022-11-07T01:08:46.120Z,21.7
2022-11-07T01:09:50.351Z,22.7
2022-11-07T01:10:54.896Z,22.4
2022-11-07T01:11:59.548Z,22.4
2022-11-07T01:13:03.941Z,22.5
2022-11-07T01:14:08.103Z,24
2022-11-07T01:15:12.196Z,23.6
2022-11-07T01:16:16.847Z,22.8
2022-11-07T01:17:21.868Z,21.9
2022-11-07T01:18:26.363Z,22.4
2022-11-07T01:19:30.675Z,22.9
2022-11-07T01:20:35.063Z,21.9
2022-11-07T01:21:39.256Z,22
2022-11-07T01:22:43.756Z,22.1
2022-11-07T01:23:47.896Z,22.2
2022-11-07T01:24:52.536Z,22.3
2022-11-07T01:25:57.048Z,22.4
2022-11-07T01:27:07.817Z,23.2
2022-11-07T01:28:11.945Z,23.3
2022-11-07T01:29:16.767Z,20.9
2022-11-07T01:30:21.045Z,22.7
2022-11-07T01:31:26.005Z,21.4
2022-11-07T01:32:30.171Z,22
2022-11-07T01:33:34.812Z,22.5
2022-11-07T01:34:39.397Z,21.7
2022-11-07T01:35:43.884Z,22.3
2022-11-07T01:36:48.108Z,22.2
2022-11-07T01:37:52.575Z,22.3
2022-11-07T01:38:56.668Z,21.9
2022-11-07T01:40:00.660Z,22.7
2022-11-07T01:41:05.335Z,22
2022-11-07T01:42:15.023Z,22
2022-11-07T01:43:19.520Z,22.8
2022-11-07T01:44:23.694Z,23
2022-11-07T01:45:27.650Z,22.1
2022-11-07T01:46:31.840Z,22.9
2022-11-07T01:47:41.502Z,23.8
2022-11-07T01:48:46.097Z,22.1
2022-11-07T01:49:50.402Z,22.7
2022-11-07T01:50:54.794Z,25.5
2022-11-07T01:51:59.421Z,23.3
2022-11-07T01:53:10.103Z,23.7
2022-11-07T01:54:14.861Z,22.6
2022-11-07T01:55:19.133Z,23.6
2022-11-07T01:56:26.389Z,23.2
2022-11-07T01:57:30.953Z,23
2022-11-07T01:58:43.589Z,23.2
2022-11-07T01:59:47.728Z,23.4
2022-11-07T02:00:51.854Z,23.8
2022-11-07T02:01:56.503Z,23.6
2022-11-07T02:03:01.112Z,23.4
2022-11-07T02:04:08.054Z,22.8
2022-11-07T02:05:12.572Z,23.1
2022-11-07T02:06:21.838Z,23.6
2022-11-07T02:07:34.404Z,22.5
2022-11-07T02:08:38.599Z,22.7
2022-11-07T02:09:42.808Z,23.5
2022-11-07T02:10:47.361Z,22.7
2022-11-07T02:11:51.612Z,22.3
2022-11-07T02:12:56.162Z,23.1
2022-11-07T02:14:00.611Z,22.7
2022-11-07T02:15:04.734Z,22.4
2022-11-07T02:16:09.552Z,22
2022-11-07T02:17:13.844Z,22.8
2022-11-07T02:18:18.245Z,23.4
2022-11-07T02:19:22.838Z,22.9
2022-11-07T02:20:32.094Z,23.9
2022-11-07T02:21:36.158Z,22.2
2022-11-07T02:22:40.248Z,22.9
2022-11-07T02:23:49.561Z,24
2022-11-07T02:24:54.403Z,22.7
2022-11-07T02:25:58.669Z,23.5
2022-11-07T02:27:02.922Z,23.9
2022-11-07T02:28:07.505Z,23.4
2022-11-07T02:29:11.977Z,21.6
2022-11-07T02:30:16.225Z,22.9
2022-11-07T02:31:26.269Z,23.3
2022-11-07T02:32:30.601Z,22
2022-11-07T02:33:34.852Z,22.8
2022-11-07T02:34:39.047Z,22.4
2022-11-07T02:35:43.665Z,22.1
2022-11-07T02:36:48.093Z,22.1
2022-11-07T02:37:52.349Z,22.4
2022-11-07T02:38:56.958Z,22.3
2022-11-07T02:40:01.078Z,23
2022-11-07T02:41:05.725Z,22.6
2022-11-07T02:42:15.261Z,23.4
2022-11-07T02:43:19.946Z,24.9
2022-11-07T02:44:24.431Z,23.7
2022-11-07T02:45:28.957Z,21.6
2022-11-07T02:46:33.597Z,24.6
2022-11-07T02:47:38.125Z,22.7
2022-11-07T02:48:42.689Z,24.1
2022-11-07T02:49:47.257Z,23.2
2022-11-07T02:50:51.389Z,24
2022-11-07T02:51:55.973Z,22.4
2022-11-07T02:53:00.457Z,23.9
2022-11-07T02:54:04.681Z,23.2
2022-11-07T02:55:09.160Z,23.6
2022-11-07T02:56:13.273Z,23.7
2022-11-07T02:57:17.881Z,23.1
2022-11-07T02:58:22.510Z,22.6
2022-11-07T02:59:27.363Z,24
2022-11-07T03:00:31.301Z,23.5
2022-11-07T03:01:35.790Z,23
2022-11-07T03:02:40.689Z,23.1
2022-11-07T03:03:47.817Z,23.8
2022-11-07T03:04:52.270Z,23.5
2022-11-07T03:05:56.789Z,23.3
2022-11-07T03:07:01.257Z,23.2
2022-11-07T03:08:06.124Z,24.7
2022-11-07T03:09:10.349Z,24.6
2022-11-07T03:10:14.968Z,23.9
2022-11-07T03:11:19.565Z,25.6
2022-11-07T03:12:24.109Z,24.9
2022-11-07T03:13:28.099Z,25.2
2022-11-07T03:14:32.620Z,24.7
2022-11-07T03:15:36.733Z,24.8
2022-11-07T03:16:40.761Z,25
2022-11-07T03:17:44.956Z,25
2022-11-07T03:18:49.413Z,24.4
2022-11-07T03:19:54.037Z,25.1
2022-11-07T03:20:58.285Z,25
2022-11-07T03:22:02.733Z,23.9
2022-11-07T03:23:06.909Z,24.6
2022-11-07T03:24:10.993Z,25
2022-11-07T03:25:15.580Z,23.7
2022-11-07T03:26:20.068Z,24.7
2022-11-07T03:27:24.237Z,25.2
2022-11-07T03:28:28.781Z,23.4
2022-11-07T03:29:33.214Z,24.4
2022-11-07T03:30:37.462Z,24.1
2022-11-07T03:31:42.426Z,24.3
2022-11-07T03:32:46.625Z,25.1
2022-11-07T03:33:53.854Z,24.5
2022-11-07T03:34:58.268Z,24.8
2022-11-07T03:36:02.448Z,25.9
2022-11-07T03:37:06.896Z,24
2022-11-07T03:38:11.169Z,25.3
2022-11-07T03:39:15.625Z,24.6
2022-11-07T03:40:20.297Z,26.2
2022-11-07T03:41:24.884Z,26.3
2022-11-07T03:42:29.312Z,27.3
2022-11-07T03:43:33.539Z,23.4
2022-11-07T03:44:38.012Z,24
2022-11-07T03:45:42.189Z,23.7
2022-11-07T03:46:46.833Z,22.4
2022-11-07T03:47:51.284Z,22.8
2022-11-07T03:48:55.289Z,23.4
2022-11-07T03:49:59.597Z,24
2022-11-07T03:51:03.989Z,22.9
2022-11-07T03:52:08.225Z,23.1
2022-11-07T03:53:13.049Z,24.7
2022-11-07T03:54:16.832Z,22.6
2022-11-07T03:55:21.285Z,23.8
2022-11-07T03:56:25.885Z,23.2
2022-11-07T03:57:29.914Z,24.1
2022-11-07T03:58:34.149Z,23.6
2022-11-07T03:59:38.701Z,22.9
2022-11-07T04:00:43.261Z,23
2022-11-07T04:01:47.864Z,22.7
2022-11-07T04:02:52.051Z,23
2022-11-07T04:03:56.415Z,21.3
2022-11-07T04:05:00.235Z,22.8
2022-11-07T04:06:04.681Z,23.6
2022-11-07T04:07:09.261Z,22.9
2022-11-07T04:08:13.869Z,22.8
2022-11-07T04:09:18.361Z,21
2022-11-07T04:10:22.521Z,21.4
2022-11-07T04:11:27.081Z,21.6
2022-11-07T04:12:36.929Z,21.6
2022-11-07T04:13:46.434Z,22.9
2022-11-07T04:14:56.310Z,23.5
2022-11-07T04:16:05.726Z,21.7
2022-11-07T04:17:15.431Z,21.5
2022-11-07T04:18:19.350Z,21.8
2022-11-07T04:19:24.011Z,22
2022-11-07T04:20:28.655Z,22.1
2022-11-07T04:21:33.051Z,20.8
2022-11-07T04:22:37.423Z,22.3
2022-11-07T04:23:41.976Z,23.3
2022-11-07T04:24:46.661Z,22.6
2022-11-07T04:25:51.371Z,23.9
2022-11-07T04:27:00.855Z,23
2022-11-07T04:28:10.505Z,23.8
2022-11-07T04:29:15.103Z,22.7
2022-11-07T04:30:19.900Z,22.2
2022-11-07T04:31:23.674Z,24.7
2022-11-07T04:32:27.836Z,23
2022-11-07T04:33:31.953Z,23
2022-11-07T04:34:36.524Z,22.1
2022-11-07T04:35:40.888Z,23.1
2022-11-07T04:36:45.157Z,20.9
2022-11-07T04:37:49.725Z,20.8
2022-11-07T04:38:53.892Z,21.6
2022-11-07T04:39:58.537Z,21.4
2022-11-07T04:41:03.078Z,19.6
2022-11-07T04:42:07.559Z,20.3
2022-11-07T04:43:12.615Z,21.1
2022-11-07T04:44:16.749Z,22.2
2022-11-07T04:45:21.296Z,22.1
2022-11-07T04:46:25.460Z,20.5
2022-11-07T04:47:29.952Z,18.6
2022-11-07T04:48:34.032Z,20.1
2022-11-07T04:49:38.590Z,19
2022-11-07T04:50:42.673Z,17.9
2022-11-07T04:51:47.288Z,18.3
2022-11-07T04:52:51.936Z,17
2022-11-07T04:53:56.528Z,18.1
2022-11-07T04:55:01.080Z,17.5
2022-11-07T04:56:05.528Z,17.2
2022-11-07T04:57:09.944Z,16.9
2022-11-07T04:58:14.764Z,17.7
2022-11-07T04:59:19.558Z,16.6
2022-11-07T05:00:24.063Z,17.6
2022-11-07T05:01:28.466Z,16.1
2022-11-07T05:02:33.132Z,16.3
2022-11-07T05:03:41.448Z,16.7
2022-11-07T05:04:41.836Z,17.3
2022-11-07T05:05:46.485Z,17.3
2022-11-07T05:06:50.960Z,16.7
2022-11-07T05:07:55.604Z,17.1
2022-11-07T05:09:00.240Z,18.3
2022-11-07T05:10:09.631Z,18.4
2022-11-07T05:11:15.456Z,18.8
2022-11-07T05:12:19.962Z,19.7
2022-11-07T05:13:24.420Z,19.1
2022-11-07T05:14:28.770Z,19.9
2022-11-07T05:15:32.587Z,20.6
2022-11-07T05:16:37.195Z,20
2022-11-07T05:17:41.369Z,19.4
2022-11-07T05:18:45.777Z,21
2022-11-07T05:19:49.940Z,20.7
2022-11-07T05:20:54.371Z,19.1
2022-11-07T05:21:58.706Z,18.4
2022-11-07T05:23:08.222Z,17.3
2022-11-07T05:24:17.942Z,15.9
2022-11-07T05:25:22.062Z,17.3
2022-11-07T05:26:26.557Z,17.6
2022-11-07T05:27:30.587Z,17.6
2022-11-07T05:28:38.974Z,15.9
2022-11-07T05:29:38.869Z,15.9
2022-11-07T05:30:43.457Z,15.7
2022-11-07T05:31:48.052Z,14.7
2022-11-07T05:32:52.211Z,15.2
2022-11-07T05:33:56.671Z,15.8
2022-11-07T05:35:00.738Z,15.8
2022-11-07T05:36:05.330Z,15.5
2022-11-07T05:37:09.334Z,14.6
2022-11-07T05:38:13.449Z,17.4
2022-11-07T05:39:17.606Z,16.8
2022-11-07T05:40:22.274Z,15.7
2022-11-07T05:41:26.853Z,15.3
2022-11-07T05:42:31.316Z,14.5
2022-11-07T05:43:35.456Z,15.4
2022-11-07T05:44:39.550Z,14.7
2022-11-07T05:45:44.235Z,15.2
2022-11-07T05:46:48.319Z,16
2022-11-07T05:47:52.800Z,13.8
2022-11-07T05:49:00.829Z,14.5
2022-11-07T05:50:01.010Z,13.2
2022-11-07T05:51:05.476Z,13
2022-11-07T05:52:09.714Z,13.1
2022-11-07T05:53:14.638Z,13
2022-11-07T05:54:18.354Z,11.9
2022-11-07T05:55:22.878Z,12.2
2022-11-07T05:56:26.877Z,13.2
2022-11-07T05:57:31.041Z,11.8
2022-11-07T05:58:35.158Z,11.3
2022-11-07T05:59:39.263Z,11.5
2022-11-07T06:00:43.907Z,11
2022-11-07T06:01:51.163Z,10.2
2022-11-07T06:02:52.566Z,10.2
2022-11-07T06:03:56.585Z,11.3
2022-11-07T06:05:00.655Z,10.8
2022-11-07T06:06:05.358Z,10.1
2022-11-07T06:07:09.946Z,11
2022-11-07T06:08:14.382Z,9.8
2022-11-07T06:09:18.549Z,9.6
2022-11-07T06:10:23.079Z,9.4
2022-11-07T06:11:27.669Z,10.3
2022-11-07T06:12:31.662Z,10.6
2022-11-07T06:13:35.786Z,9.5
2022-11-07T06:14:39.859Z,9.4
2022-11-07T06:15:44.385Z,8.8
2022-11-07T06:16:48.757Z,7.6
2022-11-07T06:17:53.255Z,7.7
2022-11-07T06:18:57.781Z,8.6
2022-11-07T06:20:02.352Z,8.4
2022-11-07T06:21:06.985Z,7.4
2022-11-07T06:22:11.419Z,7.6
2022-11-07T06:23:16.365Z,8.2
2022-11-07T06:24:20.109Z,7.1
2022-11-07T06:25:24.184Z,7.3
2022-11-07T06:26:28.493Z,7.4
2022-11-07T06:27:32.969Z,7.4
2022-11-07T06:28:37.509Z,8.2
2022-11-07T06:29:42.066Z,7.9
2022-11-07T06:30:46.049Z,7.4
2022-11-07T06:31:50.226Z,8.2
2022-11-07T06:32:54.261Z,8.3
2022-11-07T06:34:04.434Z,9.2
2022-11-07T06:35:08.482Z,7.4
2022-11-07T06:36:13.405Z,8.2
2022-11-07T06:37:18.245Z,8
2022-11-07T06:38:22.306Z,8.5
2022-11-07T06:39:26.831Z,8.9
2022-11-07T06:40:31.058Z,8.1
2022-11-07T06:41:35.097Z,8.8
2022-11-07T06:42:39.186Z,8.1
2022-11-07T06:43:43.482Z,8.3
2022-11-07T06:44:48.533Z,8.8
2022-11-07T06:45:52.851Z,8.9
2022-11-07T06:46:57.129Z,7.5
2022-11-07T06:48:01.502Z,8.6
2022-11-07T06:49:05.573Z,8.8
2022-11-07T06:50:09.911Z,7.7
2022-11-07T06:51:14.257Z,8.3
2022-11-07T06:52:18.378Z,8
2022-11-07T06:53:23.061Z,8
2022-11-07T06:54:27.605Z,7.7
2022-11-07T06:55:32.320Z,8
2022-11-07T06:56:41.106Z,8
2022-11-07T06:57:47.910Z,8.1
2022-11-07T06:58:51.989Z,8.1
2022-11-07T06:59:56.302Z,7.5
2022-11-07T07:01:00.686Z,7.3
2022-11-07T07:02:05.162Z,7.9
2022-11-07T07:03:09.852Z,7.4
2022-11-07T07:04:13.783Z,8.4
2022-11-07T07:05:21.019Z,8.3
2022-11-07T07:06:21.979Z,6.8
2022-11-07T07:07:25.988Z,7.4
2022-11-07T07:08:30.190Z,7.2
2022-11-07T07:09:34.698Z,7.7
2022-11-07T07:10:39.233Z,8
2022-11-07T07:11:43.445Z,6.8
2022-11-07T07:12:47.939Z,6.8
2022-11-07T07:13:52.066Z,7.2
2022-11-07T07:14:56.123Z,6.4
2022-11-07T07:16:00.647Z,6.7
2022-11-07T07:17:05.411Z,7
2022-11-07T07:18:09.758Z,6.9
2022-11-07T07:19:13.970Z,7
2022-11-07T07:20:18.276Z,7.3
2022-11-07T07:21:22.606Z,7.3
2022-11-07T07:22:26.546Z,7.4
2022-11-07T07:23:30.634Z,7.2
2022-11-07T07:24:37.865Z,6.7
2022-11-07T07:25:42.502Z,7
2022-11-07T07:26:46.613Z,7.1
2022-11-07T07:27:51.238Z,6.1
2022-11-07T07:28:55.667Z,7.4
2022-11-07T07:29:59.767Z,7.2
2022-11-07T07:31:04.310Z,7.5
2022-11-07T07:32:13.566Z,7.4
2022-11-07T07:33:18.581Z,7.3
2022-11-07T07:34:22.754Z,8.1
2022-11-07T07:35:27.451Z,8.5
2022-11-07T07:36:31.988Z,8.4
2022-11-07T07:37:36.746Z,8
2022-11-07T07:38:40.903Z,8.6
2022-11-07T07:39:45.091Z,7.6
2022-11-07T07:40:49.562Z,7.3
2022-11-07T07:41:53.726Z,7.1
2022-11-07T07:42:57.727Z,7.2
2022-11-07T07:44:02.387Z,6.8
2022-11-07T07:45:06.991Z,6
2022-11-07T07:46:11.437Z,6.6
2022-11-07T07:47:15.507Z,6.5
2022-11-07T07:48:19.710Z,7.4
2022-11-07T07:49:24.217Z,7.8
2022-11-07T07:50:28.777Z,7.5
2022-11-07T07:51:32.803Z,7.5
2022-11-07T07:52:37.006Z,7.2
2022-11-07T07:53:41.021Z,6.3
2022-11-07T07:54:45.160Z,6.8
2022-11-07T07:55:49.741Z,6.2
2022-11-07T07:56:56.891Z,6.9
2022-11-07T07:58:01.060Z,6.1
2022-11-07T07:59:05.478Z,6
2022-11-07T08:00:09.657Z,7.2
2022-11-07T08:01:14.161Z,7.5
2022-11-07T08:02:18.158Z,6.3
2022-11-07T08:03:22.279Z,7.2
2022-11-07T08:04:26.722Z,7.1
2022-11-07T08:05:30.864Z,6.6
2022-11-07T08:06:35.158Z,6.8
2022-11-07T08:07:39.475Z,6.3
2022-11-07T08:08:46.818Z,6.8
2022-11-07T08:09:51.310Z,6
2022-11-07T08:10:55.922Z,5.6
2022-11-07T08:12:03.502Z,6.6
2022-11-07T08:13:08.067Z,6.6
2022-11-07T08:14:12.496Z,6.1
2022-11-07T08:15:17.180Z,6.4
2022-11-07T08:16:21.252Z,6.6
2022-11-07T08:17:25.896Z,6.4
2022-11-07T08:18:30.313Z,6.4
2022-11-07T08:19:34.576Z,6
2022-11-07T08:20:39.181Z,5.4
2022-11-07T08:21:43.788Z,5.8
2022-11-07T08:22:48.324Z,5.3
2022-11-07T08:23:52.525Z,5.9
2022-11-07T08:24:56.924Z,5.3
2022-11-07T08:26:01.112Z,5.4
2022-11-07T08:27:05.712Z,5.8
2022-11-07T08:28:10.159Z,5.6
2022-11-07T08:29:14.393Z,5.5
2022-11-07T08:30:19.124Z,5.7
2022-11-07T08:31:23.516Z,5.9
2022-11-07T08:32:28.112Z,5.8
2022-11-07T08:33:32.615Z,5.2
2022-11-07T08:34:36.697Z,5.3
2022-11-07T08:35:42.620Z,5.5
2022-11-07T08:36:45.190Z,5.2
2022-11-07T08:37:49.373Z,5.8
2022-11-07T08:38:53.509Z,5.8
2022-11-07T08:39:57.564Z,5.6
2022-11-07T08:41:01.675Z,5.9
2022-11-07T08:42:06.283Z,5.9
2022-11-07T08:43:10.764Z,5.8
2022-11-07T08:44:15.131Z,5.8
2022-11-07T08:45:19.383Z,5.7
2022-11-07T08:46:23.586Z,6.1
2022-11-07T08:47:27.583Z,5.8
2022-11-07T08:48:31.802Z,5.9
2022-11-07T08:49:36.176Z,5.8
2022-11-07T08:50:40.275Z,5.6
2022-11-07T08:51:44.354Z,5.8
2022-11-07T08:52:48.972Z,5.5
2022-11-07T08:53:53.091Z,5.5
2022-11-07T08:54:57.119Z,6.1
2022-11-07T08:56:01.239Z,6.1
2022-11-07T08:57:08.402Z,6.3
2022-11-07T08:58:12.384Z,6.4
2022-11-07T08:59:16.536Z,6.8
2022-11-07T09:00:20.550Z,6.3
2022-11-07T09:01:25.844Z,6.8
2022-11-07T09:03:46.502Z,5.9
2022-11-07T09:04:40.940Z,6.8
2022-11-07T09:05:45.084Z,6
2022-11-07T09:06:49.543Z,6.4
2022-11-07T09:07:53.782Z,6.5
2022-11-07T09:08:57.862Z,6.1
2022-11-07T09:10:02.526Z,6.5
2022-11-07T09:11:07.122Z,6.6
2022-11-07T09:12:11.539Z,7.2
2022-11-07T09:13:15.937Z,6.9
2022-11-07T09:14:20.217Z,5.8
2022-11-07T09:15:24.264Z,6.4
2022-11-07T09:16:28.352Z,5.9
2022-11-07T09:17:32.470Z,5.7
2022-11-07T09:18:36.523Z,6.5
2022-11-07T09:19:40.475Z,5.7
2022-11-07T09:20:44.750Z,5.5
2022-11-07T09:21:49.275Z,5.8
2022-11-07T09:22:53.354Z,6.1
2022-11-07T09:23:57.363Z,6.2
2022-11-07T09:25:01.450Z,5.9
2022-11-07T09:26:05.987Z,6.2
2022-11-07T09:27:10.145Z,6.6
2022-11-07T09:28:14.089Z,6.1
2022-11-07T09:29:18.350Z,6.1
2022-11-07T09:30:22.844Z,6.5
2022-11-07T09:31:26.880Z,5.4
2022-11-07T09:32:44.210Z,5.8
2022-11-07T09:33:35.119Z,6.6
2022-11-07T09:34:39.826Z,5.4
2022-11-07T09:35:44.233Z,5.7
2022-11-07T09:36:48.668Z,5.3
2022-11-07T09:37:52.816Z,5.9
2022-11-07T09:38:57.007Z,5.5
2022-11-07T09:40:01.024Z,5.1
2022-11-07T09:41:05.605Z,6.3
2022-11-07T09:42:17.703Z,5.4
2022-11-07T09:43:26.870Z,5.7
2022-11-07T09:44:41.564Z,5.9
2022-11-07T09:45:53.971Z,6
2022-11-07T09:47:08.692Z,6.3
2022-11-07T09:48:12.780Z,6.7
2022-11-07T09:49:17.283Z,5.8
2022-11-07T09:50:26.941Z,6.8
2022-11-07T09:51:36.139Z,6.2
2022-11-07T09:52:40.196Z,6.3
2022-11-07T09:53:44.223Z,5.8
2022-11-07T09:54:48.372Z,5.7
2022-11-07T09:56:00.743Z,5.7
2022-11-07T09:57:05.173Z,6.1
2022-11-07T09:58:09.335Z,6
2022-11-07T09:59:19.926Z,6.3
2022-11-07T10:00:32.092Z,6.3
2022-11-07T10:01:36.294Z,6.7
2022-11-07T10:02:40.253Z,6.3
2022-11-07T10:04:51.359Z,6
2022-11-07T10:05:58.635Z,6.6
2022-11-07T10:07:05.767Z,5.6
2022-11-07T10:08:20.579Z,5.2
2022-11-07T10:09:29.676Z,5.3
2022-11-07T10:10:36.812Z,5.6
2022-11-07T10:11:51.584Z,5.4
2022-11-07T10:13:00.773Z,5.2
2022-11-07T10:14:15.540Z,5.5
2022-11-07T10:15:27.734Z,5.7
2022-11-07T10:16:37.339Z,5.9
2022-11-07T10:17:53.857Z,6.1
2022-11-07T10:19:04.375Z,5.8
2022-11-07T10:20:19.307Z,5.9
2022-11-07T10:21:39.481Z,5.7
2022-11-07T10:22:33.855Z,6.3
2022-11-07T10:23:43.455Z,5.9
2022-11-07T10:24:55.836Z,5.9
2022-11-07T10:26:05.387Z,5.9
2022-11-07T10:27:12.495Z,6.1
2022-11-07T10:28:16.630Z,6.5
2022-11-07T10:29:21.173Z,5.7
2022-11-07T10:30:25.178Z,6.3
2022-11-07T10:31:29.286Z,5.9
2022-11-07T10:32:33.404Z,5.6
2022-11-07T10:33:40.446Z,5.8
2022-11-07T10:34:54.108Z,5.9
2022-11-07T10:35:57.334Z,5.7
2022-11-07T10:37:01.879Z,6.1
2022-11-07T10:38:05.918Z,6.5
2022-11-07T10:39:15.667Z,6.6
2022-11-07T10:40:20.218Z,6.9
2022-11-07T10:41:24.206Z,5.7
2022-11-07T10:42:28.726Z,6.1
2022-11-07T10:43:33.134Z,5.6
2022-11-07T10:44:40.470Z,6.2
2022-11-07T10:45:44.590Z,6.3
2022-11-07T10:46:50.260Z,5.8
2022-11-07T10:47:53.227Z,6.5
2022-11-07T10:48:57.426Z,6.5
2022-11-07T10:50:01.878Z,6.3
2022-11-07T10:51:06.591Z,6.3
2022-11-07T10:52:10.995Z,6.2
2022-11-07T10:53:18.328Z,6.7
2022-11-07T10:54:22.714Z,6.3
2022-11-07T10:55:26.840Z,6.3
2022-11-07T10:56:30.967Z,6.3
2022-11-07T10:57:45.696Z,6
2022-11-07T10:58:50.199Z,5.6
2022-11-07T10:59:54.304Z,6.2
2022-11-07T11:00:58.462Z,5.6
2022-11-07T11:02:03.075Z,5.9
2022-11-07T11:03:15.376Z,6.3
2022-11-07T11:04:22.407Z,6
2022-11-07T11:05:27.028Z,5.8
2022-11-07T11:06:31.568Z,6.3
2022-11-07T11:07:36.148Z,6.2
2022-11-07T11:08:40.297Z,6.2
2022-11-07T11:09:44.725Z,6.6
2022-11-07T11:10:51.952Z,7.2
2022-11-07T11:11:56.523Z,7.4
2022-11-07T11:13:04.137Z,7.7
2022-11-07T11:14:08.156Z,7.6
2022-11-07T11:15:12.251Z,7.4
2022-11-07T11:16:16.336Z,6.8
2022-11-07T11:17:20.441Z,6.8
2022-11-07T11:18:24.512Z,7.3
2022-11-07T11:19:29.080Z,6.4
2022-11-07T11:20:41.248Z,6.6
2022-11-07T11:21:50.502Z,6.4
2022-11-07T11:22:54.952Z,6.5
2022-11-07T11:23:59.041Z,6.5
2022-11-07T11:25:03.720Z,6.9
2022-11-07T11:26:11.228Z,7.1
2022-11-07T11:27:25.620Z,7
2022-11-07T11:28:30.087Z,7.1
2022-11-07T11:29:39.856Z,7
2022-11-07T11:30:51.547Z,7.7
2022-11-07T11:31:59.104Z,7.8
2022-11-07T11:33:03.700Z,7.9
2022-11-07T11:34:13.423Z,7.2
2022-11-07T11:35:22.980Z,7.7
2022-11-07T11:36:35.124Z,6.9
2022-11-07T11:37:39.376Z,6.9
2022-11-07T11:38:43.481Z,7.6
2022-11-07T11:39:48.312Z,7.1
2022-11-07T11:41:01.704Z,8.1
2022-11-07T11:41:59.668Z,8
2022-11-07T11:43:04.266Z,8.3
2022-11-07T11:44:11.343Z,8.1
2022-11-07T11:45:18.487Z,8.5
2022-11-07T11:46:33.177Z,8.3
2022-11-07T11:47:37.386Z,7.7
2022-11-07T11:48:41.816Z,7.3
2022-11-07T11:49:54.142Z,7.2
2022-11-07T11:51:03.723Z,7.5
2022-11-07T11:52:08.004Z,7.4
2022-11-07T11:53:18.000Z,8.8
2022-11-07T11:54:21.796Z,8.5
2022-11-07T11:55:26.331Z,7.8
2022-11-07T11:56:30.752Z,7.9
2022-11-07T11:57:45.611Z,7.9
2022-11-07T11:59:00.341Z,7.7
2022-11-07T12:00:13.028Z,8.1
2022-11-07T12:01:20.168Z,7
2022-11-07T12:02:32.317Z,7.7
2022-11-07T12:03:46.919Z,6.9
2022-11-07T12:04:56.241Z,6.5
2022-11-07T12:06:10.956Z,6.9
2022-11-07T12:07:15.502Z,6.7
2022-11-07T12:08:25.076Z,7.6
2022-11-07T12:09:37.423Z,7.8
2022-11-07T12:10:44.417Z,8.2
2022-11-07T12:11:56.710Z,8.3
2022-11-07T12:13:03.863Z,7.8
2022-11-07T12:14:13.621Z,7.7
2022-11-07T12:15:28.587Z,8.1
2022-11-07T12:16:42.941Z,7.6
2022-11-07T12:17:55.197Z,8.2
2022-11-07T12:19:04.453Z,6.8
2022-11-07T12:20:14.127Z,6.4
2022-11-07T12:21:23.625Z,6.1
2022-11-07T12:22:33.978Z,5.6
2022-11-07T12:23:43.706Z,5.6
2022-11-07T12:24:48.195Z,6
2022-11-07T12:25:57.834Z,5.7
2022-11-07T12:27:02.499Z,5.7
2022-11-07T12:28:12.140Z,6.1
2022-11-07T12:29:26.770Z,5.7
2022-11-07T12:30:35.933Z,5.7
2022-11-07T12:31:48.030Z,6.3
2022-11-07T12:33:02.440Z,6.6
2022-11-07T12:34:11.990Z,6.4
2022-11-07T12:35:21.662Z,6.3
2022-11-07T12:36:28.335Z,6.7
2022-11-07T12:37:40.689Z,6.4
2022-11-07T12:38:48.117Z,5.7
2022-11-07T12:40:00.368Z,6.1
2022-11-07T12:41:06.971Z,6
2022-11-07T12:42:14.071Z,6.4
2022-11-07T12:43:23.284Z,6.6
2022-11-07T12:44:33.058Z,6.3
2022-11-07T12:45:40.169Z,6.6
2022-11-07T12:46:54.772Z,6.4
2022-11-07T12:47:58.896Z,6.4
2022-11-07T12:49:11.128Z,5.6
2022-11-07T12:50:18.482Z,6.3
2022-11-07T12:51:30.959Z,6.8
2022-11-07T12:52:40.696Z,7.7
2022-11-07T12:53:51.160Z,6.7
2022-11-07T12:55:05.911Z,6.6
2022-11-07T12:56:20.749Z,6.2
2022-11-07T12:57:25.358Z,6
2022-11-07T12:58:29.373Z,5.8
2022-11-07T12:59:33.526Z,5.8
2022-11-07T13:00:37.969Z,5.5
2022-11-07T13:01:42.316Z,5.3
2022-11-07T13:02:49.175Z,5.6
2022-11-07T13:04:06.308Z,5.8
2022-11-07T13:05:23.582Z,5.5
2022-11-07T13:06:38.058Z,5.6
2022-11-07T13:07:42.950Z,5.6
2022-11-07T13:08:47.296Z,5.9
2022-11-07T13:09:59.403Z,7
2022-11-07T13:11:09.262Z,5.7
2022-11-07T13:12:21.260Z,5.8
2022-11-07T13:13:32.386Z,5.8
2022-11-07T13:14:41.471Z,5.9
2022-11-07T13:16:09.299Z,5.9
2022-11-07T13:16:49.847Z,5.9
2022-11-07T13:18:02.639Z,6.1
2022-11-07T13:19:14.711Z,6.7
2022-11-07T13:20:24.290Z,7.1
2022-11-07T13:21:28.429Z,5.5
2022-11-07T13:22:32.409Z,6.2
2022-11-07T13:23:36.618Z,5.9
2022-11-07T13:24:41.068Z,6.1
2022-11-07T13:25:51.257Z,6
2022-11-07T13:27:01.014Z,6
2022-11-07T13:28:05.230Z,5.9
2022-11-07T13:29:14.811Z,5.4
2022-11-07T13:30:27.182Z,5.6
2022-11-07T13:31:31.579Z,4.9
2022-11-07T13:32:35.667Z,5.5
2022-11-07T13:33:39.739Z,5.3
2022-11-07T13:34:43.928Z,5.3
2022-11-07T13:35:56.034Z,5.5
2022-11-07T13:37:00.299Z,5.5
2022-11-07T13:38:08.666Z,5
2022-11-07T13:39:14.445Z,5.6
2022-11-07T13:40:18.477Z,5.7
2022-11-07T13:41:28.285Z,5.3
2022-11-07T13:42:32.626Z,5.3
2022-11-07T13:43:36.771Z,5.2
2022-11-07T13:44:48.889Z,5.3
2022-11-07T13:45:53.102Z,5.6
2022-11-07T13:46:57.177Z,5.4
2022-11-07T13:48:04.251Z,5.3
2022-11-07T13:49:13.913Z,5.5
2022-11-07T13:50:20.541Z,5.3
2022-11-07T13:51:24.666Z,5.6
2022-11-07T13:52:35.291Z,5.9
2022-11-07T13:53:39.305Z,5.8
2022-11-07T13:54:48.907Z,6
2022-11-07T13:55:52.910Z,5.9
2022-11-07T13:57:07.323Z,5.7
2022-11-07T13:58:19.406Z,5.9
2022-11-07T13:59:23.566Z,5.5
2022-11-07T14:00:38.293Z,5.7
2022-11-07T14:01:42.925Z,5.5
2022-11-07T14:02:46.954Z,5.7
2022-11-07T14:03:51.510Z,5.6
2022-11-07T14:05:15.077Z,4.5
2022-11-07T14:06:10.237Z,4.6
2022-11-07T14:07:14.364Z,5.3
2022-11-07T14:08:18.982Z,4.9
2022-11-07T14:09:23.401Z,5.6
2022-11-07T14:10:27.393Z,5.7
2022-11-07T14:11:41.809Z,5.5
2022-11-07T14:12:46.291Z,5.3
2022-11-07T14:13:50.930Z,5.7
2022-11-07T14:14:54.930Z,6
2022-11-07T14:15:59.093Z,5.9
2022-11-07T14:17:03.166Z,5.9
2022-11-07T14:18:07.802Z,6.3
2022-11-07T14:19:15.326Z,5.4
2022-11-07T14:20:25.462Z,5.5
2022-11-07T14:21:29.665Z,6.4
2022-11-07T14:22:34.322Z,6.6
2022-11-07T14:23:38.944Z,5.9
2022-11-07T14:24:43.410Z,6.8
2022-11-07T14:25:50.605Z,7.2
2022-11-07T14:27:03.162Z,6.7
2022-11-07T14:28:07.749Z,6.8
2022-11-07T14:29:15.211Z,7.3
2022-11-07T14:30:22.598Z,7.3
2022-11-07T14:31:26.509Z,7.2
2022-11-07T14:32:32.072Z,7
2022-11-07T14:33:35.341Z,7.7
2022-11-07T14:34:39.877Z,7.8
2022-11-07T14:35:43.879Z,6.5
2022-11-07T14:36:48.080Z,5.6
2022-11-07T14:37:55.122Z,5.6
2022-11-07T14:38:59.277Z,5.4
2022-11-07T14:40:03.856Z,4.8
2022-11-07T14:41:08.383Z,4.9
2022-11-07T14:42:12.894Z,5.5
2022-11-07T14:43:17.010Z,5.2
2022-11-07T14:44:25.133Z,5.1
2022-11-07T14:45:56.863Z,5.4
2022-11-07T14:46:33.820Z,5
2022-11-07T14:47:37.898Z,4.9
2022-11-07T14:48:42.359Z,5.5
2022-11-07T14:49:46.493Z,5.5
2022-11-07T14:50:50.653Z,4.9
2022-11-07T14:51:55.797Z,5.2
2022-11-07T14:53:00.445Z,5
2022-11-07T14:54:05.002Z,5.8
2022-11-07T14:55:12.129Z,6.4
2022-11-07T14:56:24.329Z,5.9
2022-11-07T14:57:28.789Z,6.8
2022-11-07T14:58:33.466Z,6.1
2022-11-07T14:59:37.888Z,6.9